sensor_id;sensor_type;location;lat;lon;timestamp;P1;durP1;ratioP1;P2;durP2;ratioP2
49015;SDS011;34830;44.064;12.566;2023-07-20T00:01:45;21.08;;;4.88;;
49015;SDS011;34830;44.064;12.566;2023-07-20T00:04:12;14.35;;;4.20;;
49015;SDS011;34830;44.064;12.566;2023-07-20T00:06:39;24.73;;;4.72;;
49015;SDS011;34830;44.064;12.566;2023-07-20T00:09:06;22.42;;;4.70;;
49015;SDS011;34830;44.064;12.566;2023-07-20T00:11:34;13.90;;;4.90;;
49015;SDS011;34830;44.064;12.566;2023-07-20T00:14:03;16.63;;;4.03;;
49015;SDS011;34830;44.064;12.566;2023-07-20T00:16:30;18.98;;;4.70;;
49015;SDS011;34830;44.064;12.566;2023-07-20T00:18:56;19.13;;;3.75;;
49015;SDS011;34830;44.064;12.566;2023-07-20T00:21:22;25.83;;;5.30;;
49015;SDS011;34830;44.064;12.566;2023-07-20T00:23:48;23.00;;;4.20;;
49015;SDS011;34830;44.064;12.566;2023-07-20T00:26:15;17.92;;;5.00;;
49015;SDS011;34830;44.064;12.566;2023-07-20T00:28:41;14.93;;;4.53;;
49015;SDS011;34830;44.064;12.566;2023-07-20T00:31:07;16.80;;;3.92;;
49015;SDS011;34830;44.064;12.566;2023-07-20T00:33:33;13.85;;;3.88;;
49015;SDS011;34830;44.064;12.566;2023-07-20T00:35:59;20.75;;;3.85;;
49015;SDS011;34830;44.064;12.566;2023-07-20T00:38:25;24.67;;;4.90;;
49015;SDS011;34830;44.064;12.566;2023-07-20T00:40:51;16.38;;;3.65;;
49015;SDS011;34830;44.064;12.566;2023-07-20T00:43:17;18.98;;;4.78;;
49015;SDS011;34830;44.064;12.566;2023-07-20T00:45:43;21.85;;;4.72;;
49015;SDS011;34830;44.064;12.566;2023-07-20T00:48:10;23.42;;;4.32;;
49015;SDS011;34830;44.064;12.566;2023-07-20T00:50:36;15.30;;;4.57;;
49015;SDS011;34830;44.064;12.566;2023-07-20T00:53:03;22.60;;;4.38;;
49015;SDS011;34830;44.064;12.566;2023-07-20T00:55:33;15.15;;;4.07;;
49015;SDS011;34830;44.064;12.566;2023-07-20T00:57:59;14.18;;;4.18;;
49015;SDS011;34830;44.064;12.566;2023-07-20T01:00:26;14.05;;;4.05;;
49015;SDS011;34830;44.064;12.566;2023-07-20T01:02:52;18.92;;;4.03;;
49015;SDS011;34830;44.064;12.566;2023-07-20T01:05:18;16.55;;;4.07;;
49015;SDS011;34830;44.064;12.566;2023-07-20T01:07:52;13.55;;;3.40;;
49015;SDS011;34830;44.064;12.566;2023-07-20T01:10:41;16.40;;;3.90;;
49015;SDS011;34830;44.064;12.566;2023-07-20T01:13:11;16.15;;;4.03;;
49015;SDS011;34830;44.064;12.566;2023-07-20T01:15:40;21.63;;;5.40;;
49015;SDS011;34830;44.064;12.566;2023-07-20T01:18:06;21.75;;;4.45;;
49015;SDS011;34830;44.064;12.566;2023-07-20T01:20:32;20.30;;;4.70;;
49015;SDS011;34830;44.064;12.566;2023-07-20T01:23:14;23.38;;;4.93;;
49015;SDS011;34830;44.064;12.566;2023-07-20T01:33:55;17.33;;;5.10;;
49015;SDS011;34830;44.064;12.566;2023-07-20T01:38:48;21.05;;;4.82;;
49015;SDS011;34830;44.064;12.566;2023-07-20T01:41:15;18.25;;;4.75;;
49015;SDS011;34830;44.064;12.566;2023-07-20T01:43:42;20.05;;;5.60;;
49015;SDS011;34830;44.064;12.566;2023-07-20T01:46:08;21.83;;;4.90;;
49015;SDS011;34830;44.064;12.566;2023-07-20T01:48:34;17.92;;;4.85;;
49015;SDS011;34830;44.064;12.566;2023-07-20T01:51:01;16.52;;;5.60;;
49015;SDS011;34830;44.064;12.566;2023-07-20T01:53:27;20.83;;;5.07;;
49015;SDS011;34830;44.064;12.566;2023-07-20T01:55:53;19.27;;;5.72;;
49015;SDS011;34830;44.064;12.566;2023-07-20T01:58:22;18.40;;;4.93;;
49015;SDS011;34830;44.064;12.566;2023-07-20T02:00:48;15.18;;;5.13;;
49015;SDS011;34830;44.064;12.566;2023-07-20T02:03:15;12.45;;;4.85;;
49015;SDS011;34830;44.064;12.566;2023-07-20T02:05:44;22.08;;;4.80;;
49015;SDS011;34830;44.064;12.566;2023-07-20T02:08:10;17.55;;;4.38;;
49015;SDS011;34830;44.064;12.566;2023-07-20T02:10:36;20.10;;;5.07;;
49015;SDS011;34830;44.064;12.566;2023-07-20T02:13:03;17.77;;;4.93;;
49015;SDS011;34830;44.064;12.566;2023-07-20T02:15:29;18.70;;;4.50;;
49015;SDS011;34830;44.064;12.566;2023-07-20T02:17:55;24.48;;;8.65;;
49015;SDS011;34830;44.064;12.566;2023-07-20T02:20:21;17.05;;;5.82;;
49015;SDS011;34830;44.064;12.566;2023-07-20T02:22:47;21.20;;;4.60;;
49015;SDS011;34830;44.064;12.566;2023-07-20T02:25:13;15.55;;;5.32;;
49015;SDS011;34830;44.064;12.566;2023-07-20T02:27:39;17.88;;;5.88;;
49015;SDS011;34830;44.064;12.566;2023-07-20T02:30:06;20.55;;;5.95;;
49015;SDS011;34830;44.064;12.566;2023-07-20T02:32:33;17.92;;;5.28;;
49015;SDS011;34830;44.064;12.566;2023-07-20T02:34:59;15.10;;;4.55;;
49015;SDS011;34830;44.064;12.566;2023-07-20T02:37:25;19.00;;;4.72;;
49015;SDS011;34830;44.064;12.566;2023-07-20T02:39:52;22.65;;;5.50;;
49015;SDS011;34830;44.064;12.566;2023-07-20T02:42:18;17.83;;;5.30;;
49015;SDS011;34830;44.064;12.566;2023-07-20T02:44:44;24.45;;;4.82;;
49015;SDS011;34830;44.064;12.566;2023-07-20T02:47:11;15.35;;;4.38;;
49015;SDS011;34830;44.064;12.566;2023-07-20T02:49:37;18.15;;;5.75;;
49015;SDS011;34830;44.064;12.566;2023-07-20T02:52:03;17.35;;;4.57;;
49015;SDS011;34830;44.064;12.566;2023-07-20T02:54:29;21.55;;;5.70;;
49015;SDS011;34830;44.064;12.566;2023-07-20T02:56:56;15.95;;;4.75;;
49015;SDS011;34830;44.064;12.566;2023-07-20T02:59:22;14.93;;;5.00;;
49015;SDS011;34830;44.064;12.566;2023-07-20T03:01:48;14.05;;;4.47;;
49015;SDS011;34830;44.064;12.566;2023-07-20T03:04:14;19.45;;;5.88;;
49015;SDS011;34830;44.064;12.566;2023-07-20T03:06:42;15.60;;;5.43;;
49015;SDS011;34830;44.064;12.566;2023-07-20T03:09:08;17.83;;;4.72;;
49015;SDS011;34830;44.064;12.566;2023-07-20T03:11:35;14.07;;;4.93;;
49015;SDS011;34830;44.064;12.566;2023-07-20T03:14:01;16.88;;;4.68;;
49015;SDS011;34830;44.064;12.566;2023-07-20T03:16:27;23.92;;;5.40;;
49015;SDS011;34830;44.064;12.566;2023-07-20T03:18:53;13.65;;;4.53;;
49015;SDS011;34830;44.064;12.566;2023-07-20T03:21:20;17.27;;;5.10;;
49015;SDS011;34830;44.064;12.566;2023-07-20T03:23:46;23.50;;;4.82;;
49015;SDS011;34830;44.064;12.566;2023-07-20T03:26:12;17.45;;;5.20;;
49015;SDS011;34830;44.064;12.566;2023-07-20T03:28:38;19.33;;;5.47;;
49015;SDS011;34830;44.064;12.566;2023-07-20T03:31:06;18.05;;;4.93;;
49015;SDS011;34830;44.064;12.566;2023-07-20T03:33:37;27.27;;;5.53;;
49015;SDS011;34830;44.064;12.566;2023-07-20T03:36:03;21.13;;;5.25;;
49015;SDS011;34830;44.064;12.566;2023-07-20T03:38:30;18.00;;;5.50;;
49015;SDS011;34830;44.064;12.566;2023-07-20T03:40:57;17.73;;;5.47;;
49015;SDS011;34830;44.064;12.566;2023-07-20T03:43:24;16.85;;;5.20;;
49015;SDS011;34830;44.064;12.566;2023-07-20T03:45:51;19.88;;;5.72;;
49015;SDS011;34830;44.064;12.566;2023-07-20T03:48:19;23.77;;;6.85;;
49015;SDS011;34830;44.064;12.566;2023-07-20T03:50:48;16.25;;;4.78;;
49015;SDS011;34830;44.064;12.566;2023-07-20T03:53:15;19.50;;;5.35;;
49015;SDS011;34830;44.064;12.566;2023-07-20T03:55:49;12.38;;;4.65;;
49015;SDS011;34830;44.064;12.566;2023-07-20T03:58:17;25.02;;;6.05;;
49015;SDS011;34830;44.064;12.566;2023-07-20T04:00:47;22.45;;;4.97;;
49015;SDS011;34830;44.064;12.566;2023-07-20T04:03:14;18.25;;;5.57;;
49015;SDS011;34830;44.064;12.566;2023-07-20T04:05:40;16.33;;;5.43;;
49015;SDS011;34830;44.064;12.566;2023-07-20T04:08:06;26.20;;;5.30;;
49015;SDS011;34830;44.064;12.566;2023-07-20T04:10:32;22.33;;;5.78;;
49015;SDS011;34830;44.064;12.566;2023-07-20T04:12:59;16.45;;;5.32;;
49015;SDS011;34830;44.064;12.566;2023-07-20T04:15:26;17.63;;;5.20;;
49015;SDS011;34830;44.064;12.566;2023-07-20T04:17:52;19.40;;;6.00;;
49015;SDS011;34830;44.064;12.566;2023-07-20T04:20:18;17.90;;;5.05;;
49015;SDS011;34830;44.064;12.566;2023-07-20T04:22:44;20.45;;;6.28;;
49015;SDS011;34830;44.064;12.566;2023-07-20T04:25:13;18.40;;;5.47;;
49015;SDS011;34830;44.064;12.566;2023-07-20T04:27:39;20.23;;;5.43;;
49015;SDS011;34830;44.064;12.566;2023-07-20T04:30:07;18.55;;;5.43;;
49015;SDS011;34830;44.064;12.566;2023-07-20T04:32:33;17.42;;;6.00;;
49015;SDS011;34830;44.064;12.566;2023-07-20T04:35:05;16.73;;;5.38;;
49015;SDS011;34830;44.064;12.566;2023-07-20T04:37:33;16.40;;;5.10;;
49015;SDS011;34830;44.064;12.566;2023-07-20T04:40:01;20.88;;;6.03;;
49015;SDS011;34830;44.064;12.566;2023-07-20T04:42:27;16.77;;;4.85;;
49015;SDS011;34830;44.064;12.566;2023-07-20T04:44:53;16.77;;;5.40;;
49015;SDS011;34830;44.064;12.566;2023-07-20T04:47:20;14.30;;;4.90;;
49015;SDS011;34830;44.064;12.566;2023-07-20T04:49:47;22.15;;;5.53;;
49015;SDS011;34830;44.064;12.566;2023-07-20T04:52:14;16.73;;;6.00;;
49015;SDS011;34830;44.064;12.566;2023-07-20T04:54:40;18.05;;;5.65;;
49015;SDS011;34830;44.064;12.566;2023-07-20T04:57:11;20.25;;;6.80;;
49015;SDS011;34830;44.064;12.566;2023-07-20T04:59:38;25.45;;;6.53;;
49015;SDS011;34830;44.064;12.566;2023-07-20T05:02:04;23.95;;;7.03;;
49015;SDS011;34830;44.064;12.566;2023-07-20T05:04:30;16.00;;;6.70;;
49015;SDS011;34830;44.064;12.566;2023-07-20T05:06:56;18.73;;;6.85;;
49015;SDS011;34830;44.064;12.566;2023-07-20T05:09:23;16.75;;;6.63;;
49015;SDS011;34830;44.064;12.566;2023-07-20T05:11:49;17.10;;;6.38;;
49015;SDS011;34830;44.064;12.566;2023-07-20T05:14:15;20.65;;;6.82;;
49015;SDS011;34830;44.064;12.566;2023-07-20T05:16:41;22.80;;;6.30;;
49015;SDS011;34830;44.064;12.566;2023-07-20T05:19:08;15.98;;;5.55;;
49015;SDS011;34830;44.064;12.566;2023-07-20T05:21:34;20.67;;;6.32;;
49015;SDS011;34830;44.064;12.566;2023-07-20T05:24:00;16.08;;;5.72;;
49015;SDS011;34830;44.064;12.566;2023-07-20T05:26:26;22.55;;;5.70;;
49015;SDS011;34830;44.064;12.566;2023-07-20T05:28:52;20.83;;;6.93;;
49015;SDS011;34830;44.064;12.566;2023-07-20T05:31:18;23.80;;;7.03;;
49015;SDS011;34830;44.064;12.566;2023-07-20T05:33:44;23.30;;;7.78;;
49015;SDS011;34830;44.064;12.566;2023-07-20T05:36:10;26.85;;;7.68;;
49015;SDS011;34830;44.064;12.566;2023-07-20T05:38:36;14.02;;;5.70;;
49015;SDS011;34830;44.064;12.566;2023-07-20T05:41:02;22.88;;;7.10;;
49015;SDS011;34830;44.064;12.566;2023-07-20T05:43:29;25.90;;;7.30;;
49015;SDS011;34830;44.064;12.566;2023-07-20T05:45:55;22.83;;;6.00;;
49015;SDS011;34830;44.064;12.566;2023-07-20T05:48:23;19.45;;;6.70;;
49015;SDS011;34830;44.064;12.566;2023-07-20T05:50:49;19.70;;;6.40;;
49015;SDS011;34830;44.064;12.566;2023-07-20T05:53:16;24.23;;;6.90;;
49015;SDS011;34830;44.064;12.566;2023-07-20T05:55:42;23.17;;;6.25;;
49015;SDS011;34830;44.064;12.566;2023-07-20T05:58:08;21.88;;;6.00;;
49015;SDS011;34830;44.064;12.566;2023-07-20T06:00:34;20.63;;;6.53;;
49015;SDS011;34830;44.064;12.566;2023-07-20T06:03:00;18.80;;;6.57;;
49015;SDS011;34830;44.064;12.566;2023-07-20T06:05:26;24.23;;;5.60;;
49015;SDS011;34830;44.064;12.566;2023-07-20T06:07:52;21.77;;;6.38;;
49015;SDS011;34830;44.064;12.566;2023-07-20T06:10:20;14.43;;;4.53;;
49015;SDS011;34830;44.064;12.566;2023-07-20T06:12:46;16.52;;;5.40;;
49015;SDS011;34830;44.064;12.566;2023-07-20T06:15:25;16.92;;;4.53;;
49015;SDS011;34830;44.064;12.566;2023-07-20T06:17:53;19.38;;;4.68;;
49015;SDS011;34830;44.064;12.566;2023-07-20T06:20:20;16.35;;;4.25;;
49015;SDS011;34830;44.064;12.566;2023-07-20T06:22:46;15.95;;;5.10;;
49015;SDS011;34830;44.064;12.566;2023-07-20T06:25:12;13.18;;;4.78;;
49015;SDS011;34830;44.064;12.566;2023-07-20T06:27:38;19.23;;;4.13;;
49015;SDS011;34830;44.064;12.566;2023-07-20T06:30:04;18.58;;;5.50;;
49015;SDS011;34830;44.064;12.566;2023-07-20T06:32:30;15.90;;;4.35;;
49015;SDS011;34830;44.064;12.566;2023-07-20T06:34:57;17.98;;;4.50;;
49015;SDS011;34830;44.064;12.566;2023-07-20T06:37:23;19.92;;;4.43;;
49015;SDS011;34830;44.064;12.566;2023-07-20T06:39:49;13.70;;;4.57;;
49015;SDS011;34830;44.064;12.566;2023-07-20T06:42:15;16.23;;;4.47;;
49015;SDS011;34830;44.064;12.566;2023-07-20T06:44:41;17.23;;;4.07;;
49015;SDS011;34830;44.064;12.566;2023-07-20T06:47:07;11.98;;;4.63;;
49015;SDS011;34830;44.064;12.566;2023-07-20T06:49:33;17.15;;;3.80;;
49015;SDS011;34830;44.064;12.566;2023-07-20T06:52:00;16.60;;;4.50;;
49015;SDS011;34830;44.064;12.566;2023-07-20T06:54:26;34.10;;;8.63;;
49015;SDS011;34830;44.064;12.566;2023-07-20T06:57:04;16.58;;;3.47;;
49015;SDS011;34830;44.064;12.566;2023-07-20T06:59:31;11.82;;;3.20;;
49015;SDS011;34830;44.064;12.566;2023-07-20T07:01:57;13.00;;;3.85;;
49015;SDS011;34830;44.064;12.566;2023-07-20T07:04:23;13.07;;;3.47;;
49015;SDS011;34830;44.064;12.566;2023-07-20T07:06:49;9.57;;;3.38;;
49015;SDS011;34830;44.064;12.566;2023-07-20T07:09:15;11.60;;;3.22;;
49015;SDS011;34830;44.064;12.566;2023-07-20T07:11:41;15.45;;;3.20;;
49015;SDS011;34830;44.064;12.566;2023-07-20T07:14:07;18.50;;;4.68;;
49015;SDS011;34830;44.064;12.566;2023-07-20T07:16:33;17.48;;;4.85;;
49015;SDS011;34830;44.064;12.566;2023-07-20T07:18:59;14.13;;;4.25;;
49015;SDS011;34830;44.064;12.566;2023-07-20T07:21:26;22.02;;;5.22;;
49015;SDS011;34830;44.064;12.566;2023-07-20T07:23:52;14.88;;;4.85;;
49015;SDS011;34830;44.064;12.566;2023-07-20T07:26:23;18.58;;;4.68;;
49015;SDS011;34830;44.064;12.566;2023-07-20T07:28:49;22.27;;;5.45;;
49015;SDS011;34830;44.064;12.566;2023-07-20T07:31:16;15.43;;;4.35;;
49015;SDS011;34830;44.064;12.566;2023-07-20T07:33:42;14.57;;;4.93;;
49015;SDS011;34830;44.064;12.566;2023-07-20T07:36:08;15.27;;;4.20;;
49015;SDS011;34830;44.064;12.566;2023-07-20T07:38:34;13.15;;;4.68;;
49015;SDS011;34830;44.064;12.566;2023-07-20T07:41:00;15.30;;;3.97;;
49015;SDS011;34830;44.064;12.566;2023-07-20T07:43:26;17.40;;;5.07;;
49015;SDS011;34830;44.064;12.566;2023-07-20T07:45:54;19.20;;;5.10;;
49015;SDS011;34830;44.064;12.566;2023-07-20T07:48:20;12.52;;;5.50;;
49015;SDS011;34830;44.064;12.566;2023-07-20T07:50:47;24.67;;;5.82;;
49015;SDS011;34830;44.064;12.566;2023-07-20T07:53:13;17.05;;;5.22;;
49015;SDS011;34830;44.064;12.566;2023-07-20T07:55:40;17.92;;;5.10;;
49015;SDS011;34830;44.064;12.566;2023-07-20T07:58:07;15.20;;;4.43;;
49015;SDS011;34830;44.064;12.566;2023-07-20T08:00:33;15.30;;;4.50;;
49015;SDS011;34830;44.064;12.566;2023-07-20T08:02:59;19.98;;;5.32;;
49015;SDS011;34830;44.064;12.566;2023-07-20T08:05:25;15.95;;;4.65;;
49015;SDS011;34830;44.064;12.566;2023-07-20T08:07:52;18.80;;;4.32;;
49015;SDS011;34830;44.064;12.566;2023-07-20T08:10:18;11.98;;;4.45;;
49015;SDS011;34830;44.064;12.566;2023-07-20T08:12:44;12.15;;;4.40;;
49015;SDS011;34830;44.064;12.566;2023-07-20T08:15:11;23.20;;;5.65;;
49015;SDS011;34830;44.064;12.566;2023-07-20T08:17:38;25.80;;;7.63;;
49015;SDS011;34830;44.064;12.566;2023-07-20T08:20:04;16.80;;;5.78;;
49015;SDS011;34830;44.064;12.566;2023-07-20T08:22:32;21.15;;;5.55;;
49015;SDS011;34830;44.064;12.566;2023-07-20T08:24:58;18.80;;;5.32;;
49015;SDS011;34830;44.064;12.566;2023-07-20T08:27:24;16.98;;;6.47;;
49015;SDS011;34830;44.064;12.566;2023-07-20T08:29:50;13.25;;;4.13;;
49015;SDS011;34830;44.064;12.566;2023-07-20T08:32:16;13.02;;;5.18;;
49015;SDS011;34830;44.064;12.566;2023-07-20T08:34:42;21.90;;;5.60;;
49015;SDS011;34830;44.064;12.566;2023-07-20T08:37:09;10.88;;;4.68;;
49015;SDS011;34830;44.064;12.566;2023-07-20T08:39:35;20.15;;;5.05;;
49015;SDS011;34830;44.064;12.566;2023-07-20T08:42:02;20.98;;;6.75;;
49015;SDS011;34830;44.064;12.566;2023-07-20T08:44:30;19.63;;;7.45;;
49015;SDS011;34830;44.064;12.566;2023-07-20T08:46:58;26.58;;;8.20;;
49015;SDS011;34830;44.064;12.566;2023-07-20T08:49:25;16.08;;;6.40;;
49015;SDS011;34830;44.064;12.566;2023-07-20T08:51:52;12.82;;;5.53;;
49015;SDS011;34830;44.064;12.566;2023-07-20T08:54:18;23.85;;;6.10;;
49015;SDS011;34830;44.064;12.566;2023-07-20T08:56:45;17.23;;;5.63;;
49015;SDS011;34830;44.064;12.566;2023-07-20T08:59:12;14.57;;;5.43;;
49015;SDS011;34830;44.064;12.566;2023-07-20T09:01:40;16.40;;;5.47;;
49015;SDS011;34830;44.064;12.566;2023-07-20T09:04:06;20.23;;;5.47;;
49015;SDS011;34830;44.064;12.566;2023-07-20T09:06:32;25.38;;;5.95;;
49015;SDS011;34830;44.064;12.566;2023-07-20T09:09:00;24.77;;;7.63;;
49015;SDS011;34830;44.064;12.566;2023-07-20T09:11:26;18.10;;;7.25;;
49015;SDS011;34830;44.064;12.566;2023-07-20T09:14:08;18.40;;;7.03;;
49015;SDS011;34830;44.064;12.566;2023-07-20T09:16:52;22.38;;;7.18;;
49015;SDS011;34830;44.064;12.566;2023-07-20T09:19:20;22.33;;;7.93;;
49015;SDS011;34830;44.064;12.566;2023-07-20T09:21:48;15.35;;;7.07;;
49015;SDS011;34830;44.064;12.566;2023-07-20T09:24:15;20.85;;;5.68;;
49015;SDS011;34830;44.064;12.566;2023-07-20T09:26:43;16.08;;;5.75;;
49015;SDS011;34830;44.064;12.566;2023-07-20T09:29:11;14.55;;;5.32;;
49015;SDS011;34830;44.064;12.566;2023-07-20T09:31:37;19.25;;;5.45;;
49015;SDS011;34830;44.064;12.566;2023-07-20T09:34:05;16.65;;;5.95;;
49015;SDS011;34830;44.064;12.566;2023-07-20T09:36:35;15.65;;;5.57;;
49015;SDS011;34830;44.064;12.566;2023-07-20T09:39:02;16.17;;;5.07;;
49015;SDS011;34830;44.064;12.566;2023-07-20T09:41:29;13.48;;;5.05;;
49015;SDS011;34830;44.064;12.566;2023-07-20T09:43:56;20.13;;;5.20;;
49015;SDS011;34830;44.064;12.566;2023-07-20T09:46:22;20.10;;;6.88;;
49015;SDS011;34830;44.064;12.566;2023-07-20T09:48:54;12.60;;;4.68;;
49015;SDS011;34830;44.064;12.566;2023-07-20T09:51:22;13.50;;;5.07;;
49015;SDS011;34830;44.064;12.566;2023-07-20T09:53:51;16.73;;;5.43;;
49015;SDS011;34830;44.064;12.566;2023-07-20T09:56:19;16.08;;;5.13;;
49015;SDS011;34830;44.064;12.566;2023-07-20T09:58:47;14.27;;;5.40;;
49015;SDS011;34830;44.064;12.566;2023-07-20T10:01:14;13.40;;;5.00;;
49015;SDS011;34830;44.064;12.566;2023-07-20T10:03:43;15.98;;;5.03;;
49015;SDS011;34830;44.064;12.566;2023-07-20T10:06:12;12.70;;;4.30;;
49015;SDS011;34830;44.064;12.566;2023-07-20T10:08:41;12.80;;;4.25;;
49015;SDS011;34830;44.064;12.566;2023-07-20T10:11:08;18.13;;;5.53;;
49015;SDS011;34830;44.064;12.566;2023-07-20T10:13:37;16.05;;;4.88;;
49015;SDS011;34830;44.064;12.566;2023-07-20T10:16:10;15.40;;;4.22;;
49015;SDS011;34830;44.064;12.566;2023-07-20T10:18:59;12.68;;;3.80;;
49015;SDS011;34830;44.064;12.566;2023-07-20T10:21:29;14.65;;;4.00;;
49015;SDS011;34830;44.064;12.566;2023-07-20T10:23:56;10.68;;;4.10;;
49015;SDS011;34830;44.064;12.566;2023-07-20T10:26:22;12.65;;;4.07;;
49015;SDS011;34830;44.064;12.566;2023-07-20T10:28:49;12.10;;;3.88;;
49015;SDS011;34830;44.064;12.566;2023-07-20T10:31:15;14.93;;;5.13;;
49015;SDS011;34830;44.064;12.566;2023-07-20T10:33:41;16.20;;;4.57;;
49015;SDS011;34830;44.064;12.566;2023-07-20T10:36:07;17.30;;;3.85;;
49015;SDS011;34830;44.064;12.566;2023-07-20T10:38:52;7.82;;;3.90;;
49015;SDS011;34830;44.064;12.566;2023-07-20T10:41:35;14.15;;;3.53;;
49015;SDS011;34830;44.064;12.566;2023-07-20T10:44:02;15.32;;;4.80;;
49015;SDS011;34830;44.064;12.566;2023-07-20T10:46:48;9.70;;;3.78;;
49015;SDS011;34830;44.064;12.566;2023-07-20T10:49:14;12.73;;;4.05;;
49015;SDS011;34830;44.064;12.566;2023-07-20T10:56:42;12.57;;;3.88;;
49015;SDS011;34830;44.064;12.566;2023-07-20T11:07:05;16.40;;;4.13;;
49015;SDS011;34830;44.064;12.566;2023-07-20T11:09:35;11.45;;;4.45;;
49015;SDS011;34830;44.064;12.566;2023-07-20T11:12:15;11.33;;;4.17;;
49015;SDS011;34830;44.064;12.566;2023-07-20T11:14:55;11.35;;;4.47;;
49015;SDS011;34830;44.064;12.566;2023-07-20T11:17:29;15.77;;;4.18;;
49015;SDS011;34830;44.064;12.566;2023-07-20T11:19:59;14.88;;;4.63;;
49015;SDS011;34830;44.064;12.566;2023-07-20T11:22:26;13.00;;;4.38;;
49015;SDS011;34830;44.064;12.566;2023-07-20T11:24:56;6.90;;;3.47;;
49015;SDS011;34830;44.064;12.566;2023-07-20T11:27:23;16.95;;;4.53;;
49015;SDS011;34830;44.064;12.566;2023-07-20T11:29:49;12.65;;;4.82;;
49015;SDS011;34830;44.064;12.566;2023-07-20T11:32:24;11.75;;;4.00;;
49015;SDS011;34830;44.064;12.566;2023-07-20T11:34:51;10.88;;;3.78;;
49015;SDS011;34830;44.064;12.566;2023-07-20T11:37:17;12.80;;;5.07;;
49015;SDS011;34830;44.064;12.566;2023-07-20T11:39:44;11.48;;;4.70;;
49015;SDS011;34830;44.064;12.566;2023-07-20T11:42:10;10.68;;;3.88;;
49015;SDS011;34830;44.064;12.566;2023-07-20T11:44:37;10.00;;;3.75;;
49015;SDS011;34830;44.064;12.566;2023-07-20T11:47:04;8.57;;;4.30;;
49015;SDS011;34830;44.064;12.566;2023-07-20T11:49:34;14.15;;;4.40;;
49015;SDS011;34830;44.064;12.566;2023-07-20T11:52:01;10.77;;;3.38;;
49015;SDS011;34830;44.064;12.566;2023-07-20T11:54:28;9.88;;;3.75;;
49015;SDS011;34830;44.064;12.566;2023-07-20T11:56:54;11.40;;;4.72;;
49015;SDS011;34830;44.064;12.566;2023-07-20T11:59:21;13.63;;;3.90;;
49015;SDS011;34830;44.064;12.566;2023-07-20T12:01:47;25.92;;;3.80;;
49015;SDS011;34830;44.064;12.566;2023-07-20T12:04:13;10.98;;;4.65;;
49015;SDS011;34830;44.064;12.566;2023-07-20T12:06:40;12.02;;;4.43;;
49015;SDS011;34830;44.064;12.566;2023-07-20T12:09:06;13.35;;;4.65;;
49015;SDS011;34830;44.064;12.566;2023-07-20T12:11:39;14.75;;;4.10;;
49015;SDS011;34830;44.064;12.566;2023-07-20T12:14:09;12.23;;;4.05;;
49015;SDS011;34830;44.064;12.566;2023-07-20T12:16:35;11.75;;;3.83;;
49015;SDS011;34830;44.064;12.566;2023-07-20T12:19:07;13.20;;;3.58;;
49015;SDS011;34830;44.064;12.566;2023-07-20T12:21:35;15.23;;;3.30;;
49015;SDS011;34830;44.064;12.566;2023-07-20T12:24:03;10.88;;;3.78;;
49015;SDS011;34830;44.064;12.566;2023-07-20T12:26:30;10.52;;;3.92;;
49015;SDS011;34830;44.064;12.566;2023-07-20T12:28:57;10.45;;;3.15;;
49015;SDS011;34830;44.064;12.566;2023-07-20T12:31:23;10.38;;;3.78;;
49015;SDS011;34830;44.064;12.566;2023-07-20T12:33:51;14.75;;;4.03;;
49015;SDS011;34830;44.064;12.566;2023-07-20T12:36:18;14.48;;;3.63;;
49015;SDS011;34830;44.064;12.566;2023-07-20T12:38:45;9.77;;;3.83;;
49015;SDS011;34830;44.064;12.566;2023-07-20T12:41:12;12.45;;;4.47;;
49015;SDS011;34830;44.064;12.566;2023-07-20T12:43:40;11.63;;;3.35;;
49015;SDS011;34830;44.064;12.566;2023-07-20T12:46:09;11.50;;;3.72;;
49015;SDS011;34830;44.064;12.566;2023-07-20T12:48:37;15.18;;;4.10;;
49015;SDS011;34830;44.064;12.566;2023-07-20T12:51:03;12.18;;;3.38;;
49015;SDS011;34830;44.064;12.566;2023-07-20T12:53:31;12.82;;;3.80;;
49015;SDS011;34830;44.064;12.566;2023-07-20T12:55:58;14.45;;;4.00;;
49015;SDS011;34830;44.064;12.566;2023-07-20T12:58:25;11.50;;;3.35;;
49015;SDS011;34830;44.064;12.566;2023-07-20T13:00:51;14.68;;;4.20;;
49015;SDS011;34830;44.064;12.566;2023-07-20T13:03:17;9.98;;;3.30;;
49015;SDS011;34830;44.064;12.566;2023-07-20T13:05:48;12.10;;;3.58;;
49015;SDS011;34830;44.064;12.566;2023-07-20T13:08:14;10.48;;;3.65;;
49015;SDS011;34830;44.064;12.566;2023-07-20T13:10:41;14.80;;;4.38;;
49015;SDS011;34830;44.064;12.566;2023-07-20T13:13:07;11.40;;;3.45;;
49015;SDS011;34830;44.064;12.566;2023-07-20T13:15:41;11.02;;;3.50;;
49015;SDS011;34830;44.064;12.566;2023-07-20T13:18:08;10.60;;;3.33;;
49015;SDS011;34830;44.064;12.566;2023-07-20T13:20:34;13.48;;;3.97;;
49015;SDS011;34830;44.064;12.566;2023-07-20T13:23:00;12.32;;;4.28;;
49015;SDS011;34830;44.064;12.566;2023-07-20T13:25:26;8.98;;;3.30;;
49015;SDS011;34830;44.064;12.566;2023-07-20T13:27:54;12.98;;;4.03;;
49015;SDS011;34830;44.064;12.566;2023-07-20T13:30:20;10.52;;;2.95;;
49015;SDS011;34830;44.064;12.566;2023-07-20T13:32:47;11.77;;;3.55;;
49015;SDS011;34830;44.064;12.566;2023-07-20T13:35:13;10.63;;;3.15;;
49015;SDS011;34830;44.064;12.566;2023-07-20T13:37:39;12.57;;;4.60;;
49015;SDS011;34830;44.064;12.566;2023-07-20T13:40:06;11.82;;;4.25;;
49015;SDS011;34830;44.064;12.566;2023-07-20T13:42:34;13.32;;;3.58;;
49015;SDS011;34830;44.064;12.566;2023-07-20T13:45:00;11.25;;;4.18;;
49015;SDS011;34830;44.064;12.566;2023-07-20T13:47:26;11.15;;;3.45;;
49015;SDS011;34830;44.064;12.566;2023-07-20T13:49:52;11.98;;;3.30;;
49015;SDS011;34830;44.064;12.566;2023-07-20T13:52:18;11.57;;;3.40;;
49015;SDS011;34830;44.064;12.566;2023-07-20T13:54:44;17.08;;;4.40;;
49015;SDS011;34830;44.064;12.566;2023-07-20T13:57:10;12.50;;;3.50;;
49015;SDS011;34830;44.064;12.566;2023-07-20T13:59:36;9.93;;;3.10;;
49015;SDS011;34830;44.064;12.566;2023-07-20T14:02:03;16.10;;;3.92;;
49015;SDS011;34830;44.064;12.566;2023-07-20T14:04:29;15.82;;;3.35;;
49015;SDS011;34830;44.064;12.566;2023-07-20T14:06:55;10.00;;;3.55;;
49015;SDS011;34830;44.064;12.566;2023-07-20T14:09:22;10.15;;;3.03;;
49015;SDS011;34830;44.064;12.566;2023-07-20T14:11:48;13.60;;;3.75;;
49015;SDS011;34830;44.064;12.566;2023-07-20T14:14:14;10.90;;;3.10;;
49015;SDS011;34830;44.064;12.566;2023-07-20T14:16:41;7.97;;;3.30;;
49015;SDS011;34830;44.064;12.566;2023-07-20T14:19:07;13.27;;;3.20;;
49015;SDS011;34830;44.064;12.566;2023-07-20T14:21:33;9.50;;;3.33;;
49015;SDS011;34830;44.064;12.566;2023-07-20T14:23:59;11.73;;;4.38;;
49015;SDS011;34830;44.064;12.566;2023-07-20T14:26:25;15.23;;;3.30;;
49015;SDS011;34830;44.064;12.566;2023-07-20T14:28:51;8.82;;;2.83;;
49015;SDS011;34830;44.064;12.566;2023-07-20T14:31:17;8.77;;;3.33;;
49015;SDS011;34830;44.064;12.566;2023-07-20T14:33:45;9.63;;;3.03;;
49015;SDS011;34830;44.064;12.566;2023-07-20T14:36:11;14.93;;;3.78;;
49015;SDS011;34830;44.064;12.566;2023-07-20T14:38:37;9.63;;;3.13;;
49015;SDS011;34830;44.064;12.566;2023-07-20T14:41:04;10.75;;;3.13;;
49015;SDS011;34830;44.064;12.566;2023-07-20T14:43:31;15.80;;;3.35;;
49015;SDS011;34830;44.064;12.566;2023-07-20T14:45:57;15.80;;;4.00;;